createdAt,value
2023-05-12T00:02:34.369Z,7.74
2023-05-12T00:07:36.766Z,7.68
2023-05-12T00:12:38.973Z,7.62
2023-05-12T00:17:41.189Z,7.55
2023-05-12T00:22:43.342Z,7.50
2023-05-12T00:27:45.528Z,7.45
2023-05-12T00:32:47.743Z,7.42
2023-05-12T00:37:49.898Z,7.39
2023-05-12T00:42:52.196Z,7.34
2023-05-12T00:47:54.535Z,7.28
2023-05-12T00:52:58.113Z,7.24
2023-05-12T00:58:00.275Z,7.17
2023-05-12T01:03:02.753Z,7.10
2023-05-12T01:08:05.953Z,7.06
2023-05-12T01:13:08.462Z,7.00
2023-05-12T01:18:12.104Z,6.94
2023-05-12T01:23:18.262Z,6.90
2023-05-12T01:28:21.467Z,6.84
2023-05-12T01:33:23.760Z,6.80
2023-05-12T01:38:26.248Z,6.74
2023-05-12T01:43:28.528Z,6.67
2023-05-12T01:48:30.716Z,6.62
2023-05-12T01:53:32.794Z,6.57
2023-05-12T01:58:34.969Z,6.52
2023-05-12T02:03:37.722Z,6.48
2023-05-12T02:08:39.860Z,6.43
2023-05-12T02:13:45.434Z,6.37
2023-05-12T02:18:47.780Z,6.29
2023-05-12T02:23:50.616Z,6.22
2023-05-12T02:28:52.692Z,6.13
2023-05-12T02:33:54.982Z,6.08
2023-05-12T02:38:57.177Z,6.03
2023-05-12T02:43:59.248Z,5.97
2023-05-12T02:49:01.329Z,5.95
2023-05-12T02:54:03.518Z,5.92
2023-05-12T02:59:05.601Z,5.91
2023-05-12T03:04:07.778Z,5.92
2023-05-12T03:09:09.971Z,5.92
2023-05-12T03:14:12.195Z,5.94
2023-05-12T03:19:14.435Z,5.99
2023-05-12T03:24:16.730Z,6.06
2023-05-12T03:29:18.907Z,6.14
2023-05-12T03:34:21.094Z,6.29
2023-05-12T03:39:24.503Z,6.43
2023-05-12T03:44:26.893Z,6.56
2023-05-12T03:49:29.080Z,6.72
2023-05-12T03:54:31.176Z,6.84
2023-05-12T03:59:33.340Z,7.01
2023-05-12T04:04:36.352Z,7.17
2023-05-12T04:09:38.534Z,7.35
2023-05-12T04:14:43.123Z,7.57
2023-05-12T04:19:46.390Z,7.79
2023-05-12T04:24:48.772Z,8.03
2023-05-12T04:29:51.261Z,8.25
2023-05-12T04:34:56.119Z,8.49
2023-05-12T04:39:58.300Z,8.73
2023-05-12T04:45:00.585Z,9.00
2023-05-12T04:50:04.035Z,9.25
2023-05-12T04:55:07.367Z,9.47
2023-05-12T05:00:10.215Z,9.75
2023-05-12T05:05:12.307Z,10.03
2023-05-12T05:10:14.676Z,10.25
2023-05-12T05:15:16.860Z,10.49
2023-05-12T05:20:19.885Z,10.73
2023-05-12T05:25:22.466Z,10.97
2023-05-12T05:30:24.659Z,11.20
2023-05-12T05:35:26.828Z,11.44
2023-05-12T05:40:33.818Z,11.70
2023-05-12T05:45:40.928Z,12.01
2023-05-12T05:50:43.724Z,12.29
2023-05-12T05:55:46.635Z,12.53
2023-05-12T06:00:49.423Z,12.90
2023-05-12T06:05:51.603Z,13.25
2023-05-12T06:10:53.787Z,13.72
2023-05-12T06:15:55.971Z,14.06
2023-05-12T06:20:58.054Z,14.38
2023-05-12T06:26:00.345Z,14.63
2023-05-12T06:31:02.532Z,14.85
2023-05-12T06:36:05.531Z,14.99
2023-05-12T06:41:07.835Z,15.13
2023-05-12T06:46:10.316Z,15.29
2023-05-12T06:51:13.115Z,15.45
2023-05-12T06:56:16.624Z,15.63
2023-05-12T07:01:18.841Z,15.78
2023-05-12T07:06:21.503Z,15.94
2023-05-12T07:11:23.697Z,16.14
2023-05-12T07:16:26.034Z,16.36
2023-05-12T07:21:29.180Z,16.59
2023-05-12T07:26:31.985Z,16.78
2023-05-12T07:31:34.302Z,16.96
2023-05-12T07:36:37.071Z,17.13
2023-05-12T07:41:39.248Z,17.31
2023-05-12T07:46:41.965Z,17.46
2023-05-12T07:51:44.130Z,17.62
2023-05-12T07:56:46.313Z,17.80
2023-05-12T08:01:48.842Z,17.94
2023-05-12T08:06:51.098Z,18.02
2023-05-12T08:11:53.387Z,18.19
2023-05-12T08:16:55.506Z,18.38
2023-05-12T08:21:57.757Z,18.49
2023-05-12T08:26:59.805Z,18.63
2023-05-12T08:32:02.630Z,18.72
2023-05-12T08:37:05.996Z,18.82
2023-05-12T08:42:20.622Z,18.94
2023-05-12T08:47:25.226Z,19.01
2023-05-12T08:52:33.789Z,19.10
2023-05-12T08:57:38.184Z,19.19
2023-05-12T09:02:53.055Z,19.31
2023-05-12T09:07:57.449Z,19.43
2023-05-12T09:13:03.957Z,19.53
2023-05-12T09:18:05.973Z,19.58
2023-05-12T09:23:14.344Z,19.65
2023-05-12T09:28:17.240Z,19.78
2023-05-12T09:33:19.221Z,19.87
2023-05-12T09:38:21.224Z,20.02
2023-05-12T09:43:23.183Z,20.08
2023-05-12T09:48:27.381Z,20.16
2023-05-12T09:53:29.507Z,20.29
2023-05-12T09:58:32.803Z,20.42
2023-05-12T10:03:37.751Z,20.52
2023-05-12T10:08:57.549Z,20.59
2023-05-12T10:14:00.347Z,20.64
2023-05-12T10:19:03.996Z,20.70
2023-05-12T10:24:07.195Z,20.85
2023-05-12T10:29:09.869Z,20.93
2023-05-12T10:34:18.311Z,21.08
2023-05-12T10:39:21.406Z,21.23
2023-05-12T10:44:28.114Z,21.37
2023-05-12T10:49:39.907Z,21.49
2023-05-12T10:54:44.149Z,21.59
2023-05-12T10:59:57.006Z,21.61
2023-05-12T11:05:59.105Z,21.68
2023-05-12T11:11:02.888Z,21.77
2023-05-12T11:16:06.521Z,21.85
2023-05-12T11:21:11.551Z,21.98
2023-05-12T11:26:18.053Z,22.03
2023-05-12T11:31:21.786Z,22.12
2023-05-12T11:36:23.839Z,22.23
2023-05-12T11:41:26.025Z,22.37
2023-05-12T11:46:29.272Z,22.38
2023-05-12T11:51:31.724Z,22.41
2023-05-12T11:56:34.319Z,22.48
2023-05-12T12:01:46.168Z,22.63
2023-05-12T12:06:48.010Z,22.83
2023-05-12T12:11:50.208Z,22.94
2023-05-12T12:16:52.083Z,23.09
2023-05-12T12:21:55.381Z,23.18
2023-05-12T12:26:56.997Z,23.16
2023-05-12T12:31:59.448Z,23.26
2023-05-12T12:37:01.324Z,23.40
2023-05-12T12:42:04.321Z,23.51
2023-05-12T12:47:06.318Z,23.73
2023-05-12T12:52:08.549Z,23.86
2023-05-12T12:57:10.464Z,23.85
2023-05-12T13:02:12.686Z,23.95
2023-05-12T13:07:15.154Z,24.05
2023-05-12T13:12:17.121Z,24.21
2023-05-12T13:17:19.199Z,24.33
2023-05-12T13:22:21.805Z,24.35
2023-05-12T13:27:23.670Z,24.53
2023-05-12T13:32:25.799Z,24.91
2023-05-12T13:37:27.938Z,25.09
2023-05-12T13:42:29.939Z,25.22
2023-05-12T13:47:32.348Z,25.64
2023-05-12T13:52:34.501Z,27.74
2023-05-12T13:57:36.366Z,31.83
2023-05-12T14:02:38.461Z,35.62
2023-05-12T14:07:42.060Z,39.16
2023-05-12T14:12:44.764Z,41.79
2023-05-12T14:17:46.769Z,40.63
2023-05-12T14:22:48.920Z,38.57
2023-05-12T14:27:51.020Z,39.68
2023-05-12T14:32:53.157Z,41.30
2023-05-12T14:37:56.294Z,46.68
2023-05-12T14:42:58.580Z,50.79
2023-05-12T14:48:00.673Z,53.49
2023-05-12T14:53:02.472Z,54.06
2023-05-12T14:58:04.423Z,52.49
2023-05-12T15:03:07.101Z,54.21
2023-05-12T15:08:10.124Z,56.01
2023-05-12T15:13:13.358Z,57.02
2023-05-12T15:18:15.156Z,57.79
2023-05-12T15:23:17.407Z,58.64
2023-05-12T15:28:20.410Z,59.39
2023-05-12T15:33:22.688Z,59.50
2023-05-12T15:38:24.872Z,58.50
2023-05-12T15:43:26.751Z,58.98
2023-05-12T15:48:30.090Z,58.86
2023-05-12T15:53:32.152Z,58.60
2023-05-12T15:58:34.966Z,58.47
2023-05-12T16:03:37.313Z,58.16
2023-05-12T16:08:39.506Z,57.47
2023-05-12T16:13:42.003Z,56.46
2023-05-12T16:18:44.021Z,55.01
2023-05-12T16:23:46.469Z,53.81
2023-05-12T16:28:48.651Z,50.92
2023-05-12T16:33:50.635Z,48.46
2023-05-12T16:38:53.131Z,49.11
2023-05-12T16:43:56.443Z,49.93
2023-05-12T16:48:58.618Z,45.50
2023-05-12T16:54:00.513Z,40.86
2023-05-12T16:59:03.187Z,37.46
2023-05-12T17:04:06.469Z,35.13
2023-05-12T17:09:08.993Z,33.17
2023-05-12T17:14:12.005Z,33.26
2023-05-12T17:19:14.730Z,35.38
2023-05-12T17:24:17.282Z,36.89
2023-05-12T17:29:19.982Z,36.00
2023-05-12T17:34:21.881Z,33.94
2023-05-12T17:39:23.799Z,31.73
2023-05-12T17:44:25.715Z,30.57
2023-05-12T17:49:27.694Z,29.23
2023-05-12T17:54:29.483Z,27.58
2023-05-12T17:59:31.863Z,26.31
2023-05-12T18:04:34.356Z,25.50
2023-05-12T18:09:36.369Z,25.35
2023-05-12T18:14:38.415Z,24.88
2023-05-12T18:19:40.401Z,24.18
2023-05-12T18:24:42.592Z,23.06
2023-05-12T18:29:45.082Z,21.94
2023-05-12T18:34:47.173Z,21.02
2023-05-12T18:39:49.541Z,20.17
2023-05-12T18:44:53.256Z,19.44
2023-05-12T18:49:55.340Z,18.75
2023-05-12T18:54:57.527Z,18.19
2023-05-12T18:59:59.489Z,17.68
2023-05-12T19:05:01.888Z,17.20
2023-05-12T19:10:04.823Z,16.80
2023-05-12T19:15:07.801Z,16.40
2023-05-12T19:20:10.414Z,16.01
2023-05-12T19:25:17.188Z,15.69
2023-05-12T19:30:19.591Z,15.37
2023-05-12T19:35:22.429Z,15.12
2023-05-12T19:40:24.766Z,14.98
2023-05-12T19:45:26.980Z,14.60
2023-05-12T19:50:29.238Z,14.35
2023-05-12T19:55:31.523Z,14.11
2023-05-12T20:00:33.625Z,13.89
2023-05-12T20:05:38.558Z,13.69
2023-05-12T20:10:40.639Z,13.51
2023-05-12T20:15:43.607Z,13.34
2023-05-12T20:20:45.710Z,13.19
2023-05-12T20:29:28.190Z,12.91
2023-05-12T20:34:32.301Z,12.76
2023-05-12T20:39:35.479Z,12.62
2023-05-12T20:44:39.021Z,12.46
2023-05-12T20:49:42.921Z,12.32
2023-05-12T20:54:46.466Z,12.15
2023-05-12T20:59:52.742Z,12.00
2023-05-12T21:04:56.357Z,11.90
2023-05-12T21:10:00.802Z,11.81
2023-05-12T21:15:04.829Z,11.73
2023-05-12T21:20:10.210Z,11.64
2023-05-12T21:25:13.696Z,11.56
2023-05-12T21:30:17.314Z,11.45
2023-05-12T21:35:21.039Z,11.30
2023-05-12T21:40:24.447Z,11.16
2023-05-12T21:45:28.375Z,11.00
2023-05-12T21:50:31.885Z,10.86
2023-05-12T21:55:35.210Z,10.75
2023-05-12T22:00:38.644Z,10.61
2023-05-12T22:05:42.145Z,10.46
2023-05-12T22:10:45.954Z,10.34
2023-05-12T22:15:49.290Z,10.29
2023-05-12T22:20:53.501Z,10.26
2023-05-12T22:25:56.910Z,10.16
2023-05-12T22:31:00.325Z,10.05
2023-05-12T22:36:04.041Z,9.92
2023-05-12T22:41:07.352Z,9.79
2023-05-12T22:46:10.879Z,9.67
2023-05-12T22:51:14.283Z,9.57
2023-05-12T22:56:17.716Z,9.51
2023-05-12T23:01:21.250Z,9.47
2023-05-12T23:06:24.825Z,9.39
2023-05-12T23:11:28.244Z,9.30
2023-05-12T23:16:31.707Z,9.22
2023-05-12T23:21:35.269Z,9.10
2023-05-12T23:26:38.909Z,8.99
2023-05-12T23:31:42.876Z,8.93
2023-05-12T23:36:46.429Z,8.89
2023-05-12T23:41:50.153Z,8.88
2023-05-12T23:46:53.681Z,8.84
2023-05-12T23:51:57.286Z,8.76
2023-05-12T23:57:00.707Z,8.69
